Time;durP1;ratioP1;P1;durP2;ratioP2;P2;SDS_P1;SDS_P2;PMS_P1;PMS_P2;Temp;Humidity;BMP_temperature;BMP_pressure;BME280_temperature;BME280_humidity;BME280_pressure;Samples;Min_cycle;Max_cycle;Signal;HPM_P1;HPM_P2
2022/04/19 00:00:23;;;;;;;;;;;7.00;96.50;;;6.37;76.90;96925.13;5012162;28;19932;-61
2022/04/19 00:02:48;;;;;;;;;;;6.90;96.90;;;6.29;77.74;96926.22;5013820;28;19928;-61
2022/04/19 00:05:14;;;;;;;;;;;6.80;97.40;;;6.21;78.74;96925.56;5014252;28;20029;-61
2022/04/19 00:07:41;;;;;;;;;;;6.70;97.90;;;6.19;79.54;96922.13;5016542;28;20429;-61
2022/04/19 00:10:08;;;;;;;;;;;6.70;98.30;;;6.14;80.27;96918.78;5022202;28;19974;-61
2022/04/19 00:12:33;;;;;;;;;;;6.60;98.70;;;6.05;80.77;96909.41;5020067;28;20034;-61
2022/04/19 00:15:00;;;;;;;;;;;6.60;99.20;;;6.06;81.33;96920.72;5018765;28;19930;-61
2022/04/19 00:17:25;;;;;;;;;;;6.60;99.50;;;6.00;81.59;96919.16;5018139;28;19971;-61
2022/04/19 00:19:51;;;;;;;;;;;6.50;99.90;;;5.91;81.46;96907.13;5015181;28;20043;-61
2022/04/19 00:22:17;;;;;;;;;;;6.50;99.90;;;5.91;82.13;96911.50;5020381;28;20294;-61
2022/04/19 00:24:43;;;;;;;;;;;6.40;99.90;;;5.85;82.34;96904.69;5019877;28;19932;-61
2022/04/19 00:27:09;;;;;;;;;;;6.40;99.90;;;5.80;82.70;96903.94;5015454;28;19917;-61
2022/04/19 00:29:34;;;;;;;;;;;6.40;99.90;;;5.77;82.97;96905.78;5027145;28;19920;-61
2022/04/19 00:32:01;;;;;;;;;;;6.30;99.90;;;5.66;83.07;96888.59;5021889;28;20539;-61
2022/04/19 00:34:27;;;;;;;;;;;6.20;99.90;;;5.67;83.14;96894.66;5019093;28;19978;-61
2022/04/19 00:36:52;;;;;;;;;;;6.20;99.90;;;5.61;83.26;96900.91;5020457;28;20591;-61
2022/04/19 00:39:18;;;;;;;;;;;6.20;99.90;;;5.55;83.12;96891.47;5021638;28;20040;-61
2022/04/19 00:41:43;;;;;;;;;;;6.10;99.90;;;5.51;83.53;96891.59;5015925;28;20139;-61
2022/04/19 00:44:09;;;;;;;;;;;6.00;99.90;;;5.46;83.76;96889.09;5022617;28;20020;-61
2022/04/19 00:46:35;;;;;;;;;;;6.00;99.90;;;5.43;84.17;96893.53;5017109;28;19935;-61
2022/04/19 00:49:00;;;;;;;;;;;6.00;99.90;;;5.37;84.68;96891.09;5019680;28;19925;-61
2022/04/19 00:51:27;;;;;;;;;;;5.90;99.90;;;5.34;85.07;96886.78;5015979;28;20327;-61
2022/04/19 00:53:52;;;;;;;;;;;5.90;99.90;;;5.27;85.30;96883.44;5015270;28;19932;-61
2022/04/19 00:56:18;;;;;;;;;;;5.80;99.90;;;5.26;85.52;96875.66;5016176;28;20564;-61
2022/04/19 00:58:43;;;;;;;;;;;5.80;99.90;;;5.21;85.96;96875.75;5016334;28;20272;-61
2022/04/19 01:01:09;;;;;;;;;;;5.80;99.90;;;5.03;86.52;96844.84;5019691;28;20270;-61
2022/04/19 01:03:37;;;;;;;;;;;5.70;99.90;;;5.13;86.63;96870.72;5015759;28;20012;-61
2022/04/19 01:06:04;;;;;;;;;;;5.70;99.90;;;5.09;87.08;96868.19;5021643;28;19924;-61
2022/04/19 01:08:30;;;;;;;;;;;5.70;99.90;;;5.05;87.24;96867.41;5005886;28;19979;-61
2022/04/19 01:13:17;;;;;;;;;;;5.60;99.90;;;4.97;87.96;96858.88;4998116;28;20717;-61
2022/04/19 01:13:42;;;;;;;;;;;5.60;99.90;;;4.94;88.13;96862.44;5017739;28;20016;-62
2022/04/19 01:16:08;;;;;;;;;;;5.50;99.90;;;4.93;88.99;96863.31;5001453;28;20015;-62
2022/04/19 01:18:34;;;;;;;;;;;5.50;99.90;;;4.78;89.57;96843.63;5001814;28;20399;-61
2022/04/19 01:21:00;;;;;;;;;;;5.50;99.90;;;4.89;89.62;96858.22;5019166;28;19979;-61
2022/04/19 01:23:26;;;;;;;;;;;5.40;99.90;;;4.87;90.23;96865.22;5023347;28;19925;-61
2022/04/19 01:25:52;;;;;;;;;;;5.40;99.90;;;4.85;90.69;96851.34;5017086;28;19921;-62
2022/04/19 01:28:19;;;;;;;;;;;5.40;99.90;;;4.81;90.61;96855.78;5019541;28;19913;-61
2022/04/19 01:30:45;;;;;;;;;;;5.40;99.90;;;4.78;91.09;96853.25;5024739;28;20472;-61
2022/04/19 01:33:11;;;;;;;;;;;5.40;99.90;;;4.75;91.38;96855.91;5002796;28;19927;-61
2022/04/19 01:35:36;;;;;;;;;;;5.30;99.90;;;4.71;91.90;96852.50;5020176;28;19971;-62
2022/04/19 01:38:02;;;;;;;;;;;5.30;99.90;;;4.63;92.36;96838.78;5018997;28;19920;-62
2022/04/19 01:40:28;;;;;;;;;;;5.30;99.90;;;4.68;92.20;96844.72;5020513;28;19935;-62
2022/04/19 01:42:58;;;;;;;;;;;5.20;99.90;;;4.66;92.30;96841.31;5018086;28;19927;-62
2022/04/19 01:45:25;;;;;;;;;;;5.20;99.90;;;4.63;92.36;96843.13;5016711;28;19917;-62
2022/04/19 01:47:56;;;;;;;;;;;5.20;99.90;;;4.60;92.51;96838.84;5016284;28;19928;-62
2022/04/19 01:50:24;;;;;;;;;;;5.30;99.90;;;4.62;91.98;96839.66;5017835;28;20381;-62
2022/04/19 01:52:50;;;;;;;;;;;5.20;99.90;;;4.62;91.38;96837.03;4997771;28;20056;-62
2022/04/19 01:55:17;;;;;;;;;;;5.20;99.90;;;4.65;91.95;96838.72;5020470;28;19925;-61
2022/04/19 01:57:47;;;;;;;;;;;5.30;99.90;;;4.61;92.50;96831.84;5018246;28;19961;-62
2022/04/19 02:00:14;;;;;;;;;;;5.30;99.90;;;4.60;92.90;96828.38;5018949;28;19968;-62
2022/04/19 02:02:40;;;;;;;;;;;5.30;99.90;;;4.57;93.10;96831.06;5017729;28;19921;-61
2022/04/19 02:05:06;;;;;;;;;;;5.20;99.90;;;4.51;93.22;96826.84;5017304;28;19921;-62
2022/04/19 02:07:33;;;;;;;;;;;5.20;99.90;;;4.54;93.49;96829.38;5018796;28;19917;-63
2022/04/19 02:10:02;;;;;;;;;;;5.20;99.90;;;4.53;93.37;96832.88;4998781;28;20225;-62
2022/04/19 02:12:28;;;;;;;;;;;5.20;99.90;;;4.53;93.35;96829.41;5016185;28;19929;-62
2022/04/19 02:14:54;;;;;;;;;;;5.20;99.90;;;4.48;93.12;96819.06;5014995;28;20006;-62
2022/04/19 02:17:20;;;;;;;;;;;5.20;99.90;;;4.51;92.60;96828.59;5017253;28;19944;-62
2022/04/19 02:19:47;;;;;;;;;;;5.20;99.90;;;4.50;91.95;96832.94;5019876;28;19971;-62
2022/04/19 02:22:13;;;;;;;;;;;5.10;99.90;;;4.52;91.24;96833.78;5026477;28;20361;-62
2022/04/19 02:24:38;;;;;;;;;;;5.10;99.90;;;4.56;90.51;96827.59;5028959;28;22513;-62
2022/04/19 02:27:05;;;;;;;;;;;5.20;99.90;;;4.58;90.39;96832.78;5045591;22;20288;-56
2022/04/19 02:29:32;;;;;;;;;;;5.20;99.90;;;4.47;90.57;96816.47;5052629;28;19925;-56
2022/04/19 02:31:57;;;;;;;;;;;5.10;99.90;;;4.54;90.31;96828.50;5055239;28;19977;-56
2022/04/19 02:34:23;;;;;;;;;;;5.10;99.90;;;4.53;89.95;96827.66;5053711;28;20283;-56
2022/04/19 02:36:49;;;;;;;;;;;5.10;99.90;;;4.54;89.88;96824.16;5047644;28;19947;-57
2022/04/19 02:39:15;;;;;;;;;;;5.10;99.90;;;4.53;90.24;96817.22;5029500;28;19925;-56
2022/04/19 02:41:40;;;;;;;;;;;5.10;99.90;;;4.53;90.71;96822.44;5027199;28;19916;-56
2022/04/19 02:44:09;;;;;;;;;;;5.10;99.90;;;4.48;90.95;96816.44;5030547;28;19987;-56
2022/04/19 02:46:37;;;;;;;;;;;5.10;99.90;;;4.51;91.18;96815.53;5031985;28;19940;-56
2022/04/19 02:49:06;;;;;;;;;;;5.10;99.90;;;4.46;91.66;96817.41;5028925;28;19925;-56
2022/04/19 02:51:35;;;;;;;;;;;5.10;99.90;;;4.47;91.74;96824.31;5026743;28;19929;-56
2022/04/19 02:54:00;;;;;;;;;;;5.00;99.90;;;4.44;92.32;96819.19;5032082;28;19924;-56
2022/04/19 02:56:26;;;;;;;;;;;5.00;99.90;;;4.40;92.80;96815.78;5028711;28;19925;-52
2022/04/19 02:58:52;;;;;;;;;;;5.00;99.90;;;4.35;93.04;96813.25;5030097;28;20316;-56
2022/04/19 03:01:18;;;;;;;;;;;4.90;99.90;;;4.32;93.70;96813.31;5029115;28;19925;-56
2022/04/19 03:03:45;;;;;;;;;;;4.90;99.90;;;4.26;94.17;96807.38;5029983;28;20485;-56
2022/04/19 03:06:10;;;;;;;;;;;4.90;99.90;;;4.23;94.30;96813.50;5032178;28;20392;-56
2022/04/19 03:08:36;;;;;;;;;;;4.80;99.90;;;4.19;94.44;96804.88;5028833;28;19921;-56
2022/04/19 03:11:02;;;;;;;;;;;4.80;99.90;;;4.16;94.84;96809.31;5028456;28;20167;-57
2022/04/19 03:13:28;;;;;;;;;;;4.70;99.90;;;4.10;95.10;96809.47;5031473;28;19916;-57
2022/04/19 03:15:54;;;;;;;;;;;4.70;99.90;;;3.98;94.97;96798.38;5027889;28;19931;-57
2022/04/19 03:18:20;;;;;;;;;;;4.70;99.90;;;4.02;95.10;96801.78;5030259;28;19917;-57
2022/04/19 03:20:46;;;;;;;;;;;4.60;99.90;;;3.91;95.33;96791.56;5030692;28;19921;-57
2022/04/19 03:28:41;;;;;;;;;;;4.50;99.90;;;3.88;95.88;96786.41;5025720;28;19927;-56
2022/04/19 03:31:07;;;;;;;;;;;4.50;99.90;;;3.82;96.04;96789.13;5025025;28;20344;-56
2022/04/19 03:33:36;;;;;;;;;;;4.50;99.90;;;3.85;96.50;96794.28;5029170;28;19917;-56
2022/04/19 03:36:02;;;;;;;;;;;4.50;99.90;;;3.83;96.96;96791.72;5030676;28;19921;-56
2022/04/19 03:38:28;;;;;;;;;;;4.40;99.90;;;3.78;97.28;96793.53;5031642;28;20403;-57
2022/04/19 03:40:53;;;;;;;;;;;4.40;99.90;;;3.79;97.49;96800.50;5030229;28;19991;-57
2022/04/19 03:43:20;;;;;;;;;;;4.40;99.90;;;3.75;97.84;96787.53;5030298;28;20069;-58
2022/04/19 03:45:45;;;;;;;;;;;4.40;99.90;;;3.76;98.40;96786.66;5028717;28;19925;-58
2022/04/19 03:48:14;;;;;;;;;;;4.40;99.90;;;3.85;98.39;96785.63;5025044;28;19917;-57
2022/04/19 03:50:40;;;;;;;;;;;4.40;99.90;;;3.85;98.17;96801.25;5028483;28;21451;-57
2022/04/19 03:53:07;;;;;;;;;;;4.40;99.90;;;3.83;97.96;96802.16;5029960;28;20355;-57
2022/04/19 03:55:32;;;;;;;;;;;4.50;99.90;;;3.83;98.14;96799.53;5028057;28;19928;-57
2022/04/19 03:57:58;;;;;;;;;;;4.40;99.90;;;3.85;98.29;96799.50;5023975;28;19925;-57
2022/04/19 04:00:24;;;;;;;;;;;4.50;99.90;;;3.84;98.48;96805.63;5029076;28;20530;-57
2022/04/19 04:02:49;;;;;;;;;;;4.40;99.90;;;3.78;99.09;96801.38;5027631;28;20236;-57
2022/04/19 04:05:15;;;;;;;;;;;4.50;99.90;;;3.78;99.44;96803.97;5027734;28;19952;-58
2022/04/19 04:07:41;;;;;;;;;;;4.40;99.90;;;3.79;99.47;96812.69;5027595;28;19927;-58
2022/04/19 04:10:08;;;;;;;;;;;4.40;99.90;;;3.77;99.55;96806.66;5028793;28;20340;-57
2022/04/19 04:12:34;;;;;;;;;;;4.40;99.90;;;3.76;99.93;96810.13;5028977;28;19925;-57
2022/04/19 04:15:02;;;;;;;;;;;4.40;99.90;;;3.73;99.82;96794.53;5031796;28;20311;-57
2022/04/19 04:17:28;;;;;;;;;;;4.40;99.90;;;3.76;99.86;96805.75;5029689;28;19925;-57
2022/04/19 04:19:54;;;;;;;;;;;4.40;99.90;;;3.76;99.82;96799.69;5030314;28;20013;-57
2022/04/19 04:22:19;;;;;;;;;;;4.40;99.90;;;3.78;99.42;96806.59;5032392;28;19924;-57
2022/04/19 04:24:45;;;;;;;;;;;4.40;99.90;;;3.80;99.47;96809.16;5029171;28;19959;-57
2022/04/19 04:27:10;;;;;;;;;;;4.40;99.90;;;3.77;99.38;96804.88;5032504;28;19920;-57
2022/04/19 04:29:36;;;;;;;;;;;4.40;99.90;;;3.76;99.74;96804.91;5031972;28;20454;-57
2022/04/19 04:32:04;;;;;;;;;;;4.40;99.90;;;3.78;99.31;96811.81;5034592;28;19928;-57
2022/04/19 04:34:29;;;;;;;;;;;4.40;99.90;;;3.79;99.26;96815.28;5036176;28;19982;-58
2022/04/19 04:36:55;;;;;;;;;;;4.40;99.90;;;3.78;98.65;96809.19;5033017;28;19928;-57
2022/04/19 04:39:20;;;;;;;;;;;4.40;99.90;;;3.77;98.58;96802.28;5031687;28;20019;-57
2022/04/19 04:41:46;;;;;;;;;;;4.40;99.90;;;3.81;98.64;96813.50;5034377;28;19983;-57
2022/04/19 04:44:12;;;;;;;;;;;4.40;99.90;;;3.88;98.58;96807.28;5033657;28;20100;-57
2022/04/19 04:49:38;;;;;;;;;;;4.50;99.90;;;3.98;98.10;96810.56;5036284;28;20062;-57
2022/04/19 04:52:10;;;;;;;;;;;4.60;99.90;;;4.07;97.67;96809.50;5032552;28;20384;-57
2022/04/19 04:54:36;;;;;;;;;;;4.70;99.90;;;4.15;97.02;96818.06;5035460;28;19921;-57
2022/04/19 04:57:03;;;;;;;;;;;4.70;99.90;;;4.17;97.02;96811.03;5038218;28;20042;-57
2022/04/19 04:59:30;;;;;;;;;;;4.80;99.90;;;4.17;96.64;96811.91;5029801;28;19921;-58
2022/04/19 05:01:56;;;;;;;;;;;4.80;99.90;;;4.22;96.66;96806.59;5034275;28;20365;-57
2022/04/19 05:04:21;;;;;;;;;;;4.80;99.90;;;4.24;96.06;96794.38;5037336;28;20427;-57
2022/04/19 05:06:47;;;;;;;;;;;4.90;99.90;;;4.30;95.77;96804.66;5037528;28;19924;-57
2022/04/19 05:09:13;;;;;;;;;;;4.90;99.90;;;4.37;95.24;96806.25;5036946;28;19924;-58
2022/04/19 05:11:39;;;;;;;;;;;4.90;99.90;;;4.39;95.35;96801.84;5037377;28;19964;-57
2022/04/19 05:14:05;;;;;;;;;;;5.00;99.90;;;4.48;95.39;96806.00;5039772;28;20017;-58
2022/04/19 05:16:31;;;;;;;;;;;5.10;99.90;;;4.57;95.09;96807.56;5031747;28;19925;-57
2022/04/19 05:18:57;;;;;;;;;;;5.20;99.90;;;4.66;94.93;96811.72;5035722;28;19924;-57
2022/04/19 05:21:22;;;;;;;;;;;5.30;99.90;;;4.74;94.42;96813.25;5034024;28;20339;-57
2022/04/19 05:23:48;;;;;;;;;;;5.40;99.90;;;4.80;94.03;96804.41;5030739;28;20324;-57
2022/04/19 05:26:14;;;;;;;;;;;5.50;99.90;;;4.89;93.91;96808.56;5033487;28;20155;-58
2022/04/19 05:28:39;;;;;;;;;;;5.50;99.90;;;4.97;93.77;96811.84;5032301;28;19987;-57
2022/04/19 05:31:05;;;;;;;;;;;5.60;99.90;;;5.02;93.32;96809.97;5034159;28;20550;-57
2022/04/19 05:33:30;;;;;;;;;;;5.70;99.90;;;5.08;92.59;96809.84;5031818;28;19917;-58
2022/04/19 05:35:56;;;;;;;;;;;5.70;99.90;;;5.22;91.66;96819.09;5033655;28;20052;-57
2022/04/19 05:38:22;;;;;;;;;;;5.80;99.90;;;5.33;90.77;96819.69;5031827;28;19932;-57
2022/04/19 05:40:47;;;;;;;;;;;5.90;99.90;;;5.44;90.26;96822.91;5030265;28;19998;-57
2022/04/19 05:43:13;;;;;;;;;;;6.10;99.90;;;5.53;89.32;96812.19;5030602;28;20010;-59
2022/04/19 05:45:42;;;;;;;;;;;6.20;99.90;;;5.55;88.06;96799.06;5034062;28;19986;-57
2022/04/19 05:48:08;;;;;;;;;;;6.30;99.90;;;5.80;87.02;96819.34;5030227;28;19917;-57
2022/04/19 05:50:33;;;;;;;;;;;6.40;99.90;;;5.93;86.96;96823.34;5032014;28;20303;-57
2022/04/19 05:52:59;;;;;;;;;;;6.50;99.90;;;6.03;86.94;96821.34;5032149;28;19928;-57
2022/04/19 05:55:24;;;;;;;;;;;6.60;99.90;;;6.06;86.19;96816.88;5030964;28;19964;-57
2022/04/19 05:57:50;;;;;;;;;;;6.70;99.90;;;6.22;85.69;96817.28;5029253;28;19921;-57
2022/04/19 06:00:16;;;;;;;;;;;6.80;99.90;;;6.33;84.99;96824.84;5032872;28;20570;-57
2022/04/19 06:05:26;;;;;;;;;;;7.00;99.90;;;6.53;83.54;96820.78;5033962;28;19931;-56
2022/04/19 06:07:52;;;;;;;;;;;7.10;99.90;;;6.59;82.82;96813.59;5023968;28;19921;-57
2022/04/19 06:10:18;;;;;;;;;;;7.30;99.90;;;6.76;81.87;96826.16;5026207;28;19917;-57
2022/04/19 06:12:44;;;;;;;;;;;7.40;99.90;;;6.86;81.34;96824.13;5029236;28;19921;-56
2022/04/19 06:15:10;;;;;;;;;;;7.50;99.90;;;6.97;80.62;96826.41;5031441;28;19948;-56
2022/04/19 06:17:38;;;;;;;;;;;7.50;99.90;;;7.08;79.53;96833.03;5030682;28;19966;-56
2022/04/19 06:20:05;;;;;;;;;;;7.60;99.90;;;7.21;79.05;96832.63;5031433;28;19917;-57
2022/04/19 06:22:31;;;;;;;;;;;7.80;99.90;;;7.35;78.41;96833.03;5029647;28;19932;-57
2022/04/19 06:24:57;;;;;;;;;;;7.90;99.90;;;7.41;76.59;96822.34;5028218;28;19917;-57
2022/04/19 06:27:24;;;;;;;;;;;8.10;99.90;;;7.60;76.02;96826.97;5032176;28;19932;-57
2022/04/19 06:29:52;;;;;;;;;;;8.20;99.90;;;7.80;75.52;96832.38;5028183;28;19924;-57
2022/04/19 06:32:18;;;;;;;;;;;8.40;99.90;;;7.99;75.37;96826.50;5033846;28;20346;-57
2022/04/19 06:34:43;;;;;;;;;;;8.50;99.90;;;8.11;75.13;96818.19;5019382;28;19924;-58
2022/04/19 06:37:09;;;;;;;;;;;8.70;99.90;;;8.33;74.01;96825.25;5023933;28;19991;-57
2022/04/19 06:39:35;;;;;;;;;;;8.80;99.90;;;8.49;72.37;96822.94;5031923;28;19948;-56
2022/04/19 06:42:00;;;;;;;;;;;9.00;99.90;;;8.66;71.32;96827.56;5029617;28;19972;-56
2022/04/19 06:44:26;;;;;;;;;;;9.10;99.90;;;8.77;69.83;96820.09;5030056;28;20159;-56
2022/04/19 06:46:52;;;;;;;;;;;9.30;99.90;;;8.91;69.60;96828.31;5031053;28;20015;-57
2022/04/19 06:49:18;;;;;;;;;;;9.40;99.90;;;9.03;68.60;96823.50;5032376;28;19917;-57
2022/04/19 06:51:44;;;;;;;;;;;9.50;99.90;;;9.09;67.59;96828.50;5031338;28;19999;-57
2022/04/19 06:54:11;;;;;;;;;;;9.60;99.90;;;9.16;67.35;96827.34;5027648;28;19929;-57
2022/04/19 06:56:36;;;;;;;;;;;9.70;99.90;;;9.25;66.67;96828.75;5031634;28;20340;-57
2022/04/19 06:59:02;;;;;;;;;;;9.70;99.90;;;9.31;66.22;96829.34;5033384;28;20424;-57
2022/04/19 07:01:28;;;;;;;;;;;9.80;99.90;;;9.35;65.77;96822.19;5033431;28;19923;-57
2022/04/19 07:03:53;;;;;;;;;;;9.90;99.90;;;9.41;65.25;96835.06;5034515;28;19916;-57
2022/04/19 07:06:19;;;;;;;;;;;9.90;99.90;;;9.40;65.09;96829.88;5033625;28;20051;-57
2022/04/19 07:08:45;;;;;;;;;;;9.90;99.90;;;9.48;64.79;96836.53;5033217;28;19921;-56
2022/04/19 07:11:12;;;;;;;;;;;10.00;99.90;;;9.49;64.38;96838.25;5031773;28;20377;-57
2022/04/19 07:13:41;;;;;;;;;;;10.00;99.90;;;9.56;64.02;96833.56;5022468;28;19940;-57
2022/04/19 07:16:06;;;;;;;;;;;10.00;99.90;;;9.65;63.29;96838.44;5051629;28;19925;-56
2022/04/19 07:18:32;;;;;;;;;;;10.10;99.90;;;9.74;62.80;96829.31;5034681;28;19975;-57
2022/04/19 07:26:38;;;;;;;;;;;10.50;99.90;;;10.07;62.58;96823.53;5034422;28;20301;-47
2022/04/19 07:29:04;;;;;;;;;;;10.60;99.90;;;10.22;60.87;96820.19;5033139;28;19932;-47
2022/04/19 07:31:31;;;;;;;;;;;10.70;99.90;;;10.40;59.19;96826.44;5033287;28;19929;-55
2022/04/19 07:33:57;;;;;;;;;;;10.90;99.90;;;10.46;65.02;96823.53;5030807;28;20376;-54
2022/04/19 07:36:23;;;;;;;;;;;11.00;99.90;;;10.64;65.49;96824.47;5032459;28;19917;-54
2022/04/19 07:38:49;;;;;;;;;;;11.10;99.90;;;10.83;64.93;96829.72;5033716;28;19986;-54
2022/04/19 07:41:15;;;;;;;;;;;11.20;99.90;;;10.93;60.45;96829.28;5035525;28;19924;-56
2022/04/19 07:43:43;;;;;;;;;;;11.40;99.90;;;11.04;61.19;96827.03;5032731;28;19992;-56
2022/04/19 07:46:10;;;;;;;;;;;11.50;99.90;;;11.16;61.65;96831.72;5035120;28;20107;-56
2022/04/19 07:48:36;;;;;;;;;;;11.60;99.90;;;11.25;57.01;96831.25;5032589;28;19916;-56
2022/04/19 07:51:01;;;;;;;;;;;11.70;98.60;;;11.36;57.08;96819.28;5033296;28;19916;-56
2022/04/19 07:53:27;;;;;;;;;;;11.80;99.00;;;11.55;57.38;96821.91;5033443;28;19921;-56
2022/04/19 07:55:55;;;;;;;;;;;12.00;98.70;;;11.65;56.29;96821.34;5035015;28;19963;-56
2022/04/19 07:58:21;;;;;;;;;;;12.10;98.30;;;11.79;53.29;96827.72;5027714;28;20163;-56
2022/04/19 08:00:46;;;;;;;;;;;12.20;96.50;;;11.89;53.53;96823.69;5030732;28;19920;-56
2022/04/19 08:03:12;;;;;;;;;;;12.30;96.40;;;11.95;53.34;96823.41;5023049;28;19921;-54
2022/04/19 08:05:39;;;;;;;;;;;12.40;96.40;;;12.01;52.97;96824.88;5030109;28;19973;-56
2022/04/19 08:08:05;;;;;;;;;;;12.40;96.00;;;12.05;49.70;96825.56;5033439;28;20281;-56
2022/04/19 08:10:30;;;;;;;;;;;12.50;94.60;;;12.15;49.32;96821.50;5030003;28;19920;-56
2022/04/19 08:12:56;;;;;;;;;;;12.50;93.80;;;12.28;48.31;96827.84;5029885;28;19936;-56
2022/04/19 08:15:23;;;;;;;;;;;12.60;93.00;;;12.35;47.06;96823.09;5033986;28;19925;-56
2022/04/19 08:17:49;;;;;;;;;;;12.70;91.60;;;12.37;47.20;96826.50;5028959;28;19986;-57
2022/04/19 08:20:15;;;;;;;;;;;12.70;91.40;;;12.33;46.93;96824.97;5030654;28;20288;-56
2022/04/19 08:22:46;;;;;;;;;;;12.70;91.00;;;12.21;46.72;96815.91;5035903;28;19952;-56
2022/04/19 08:25:12;;;;;;;;;;;12.60;90.50;;;12.16;47.30;96824.06;5035056;28;20201;-56
2022/04/19 08:27:44;;;;;;;;;;;12.50;90.90;;;12.22;45.72;96822.88;5026917;28;19999;-57
2022/04/19 08:30:10;;;;;;;;;;;12.50;89.30;;;12.23;45.04;96819.31;5030186;28;19951;-56
2022/04/19 08:32:36;;;;;;;;;;;12.60;87.60;;;12.22;44.88;96826.41;5059336;22;20234;-58
2022/04/19 08:35:02;;;;;;;;;;;12.70;88.00;;;12.22;45.83;96817.59;5057159;28;20235;-58
2022/04/19 08:37:36;;;;;;;;;;;12.70;88.00;;;12.28;46.81;96819.94;5056662;28;19919;-59
2022/04/19 08:40:10;;;;;;;;;;;12.70;87.90;;;12.38;45.30;96821.16;5058035;28;19927;-59
2022/04/19 08:42:38;;;;;;;;;;;12.80;88.40;;;12.54;45.72;96810.59;5052037;28;19924;-59
2022/04/19 08:45:05;;;;;;;;;;;12.90;88.00;;;12.70;45.42;96815.03;5036802;28;20004;-59
2022/04/19 08:47:32;;;;;;;;;;;13.10;86.70;;;12.76;43.77;96814.72;5037840;28;19920;-59
2022/04/19 08:50:01;;;;;;;;;;;13.20;83.90;;;12.86;43.98;96812.41;5037556;28;19920;-60
2022/04/19 08:52:27;;;;;;;;;;;13.20;84.60;;;12.91;44.39;96810.38;5037456;28;19925;-59
2022/04/19 08:57:39;;;;;;;;;;;13.40;84.00;;;13.32;42.47;96815.16;5037110;28;20020;-59
2022/04/19 09:00:06;;;;;;;;;;;13.60;81.70;;;13.41;43.58;96805.84;5038509;28;19913;-59
2022/04/19 09:02:33;;;;;;;;;;;13.80;83.40;;;13.42;43.99;96804.88;5036702;28;20392;-59
2022/04/19 09:05:13;;;;;;;;;;;13.80;83.20;;;13.52;43.28;96804.25;5036924;28;20153;-58
2022/04/19 09:07:40;;;;;;;;;;;13.90;81.80;;;13.58;42.04;96803.03;5037343;28;19921;-58
2022/04/19 09:10:06;;;;;;;;;;;14.00;80.80;;;13.43;40.97;96809.25;5032359;28;19925;-61
2022/04/19 09:12:32;;;;;;;;;;;13.90;77.70;;;13.38;42.23;96798.91;5032048;28;20006;-64
2022/04/19 09:15:06;;;;;;;;;;;13.90;79.60;;;13.47;42.20;96797.50;5035365;28;19924;-60
2022/04/19 09:17:42;;;;;;;;;;;13.90;79.40;;;13.62;41.93;96793.97;5030678;28;19924;-61
2022/04/19 09:20:08;;;;;;;;;;;14.00;80.20;;;13.71;41.57;96801.38;5028724;28;20007;-61
2022/04/19 09:22:34;;;;;;;;;;;14.10;78.60;;;13.91;42.18;96796.69;5035038;28;19916;-61
2022/04/19 09:25:16;;;;;;;;;;;14.20;78.30;;;13.89;41.44;96790.59;5034071;28;20415;-60
2022/04/19 09:27:42;;;;;;;;;;;14.30;77.90;;;13.86;40.55;96799.59;5034115;28;19925;-60
2022/04/19 09:30:29;;;;;;;;;;;14.30;75.90;;;13.90;40.42;96795.81;5037172;28;19913;-60
2022/04/19 09:33:01;;;;;;;;;;;14.30;75.50;;;14.09;41.17;96792.09;5034499;28;19929;-60
2022/04/19 09:35:31;;;;;;;;;;;14.40;76.70;;;14.18;37.88;96788.03;5031817;28;19925;-60
2022/04/19 09:37:57;;;;;;;;;;;14.60;72.20;;;14.26;36.56;96791.88;5032770;28;19921;-60
2022/04/19 09:40:49;;;;;;;;;;;14.60;68.30;;;14.32;37.55;96786.22;5034480;28;19917;-60
2022/04/19 09:43:21;;;;;;;;;;;14.60;69.40;;;14.39;37.36;96791.13;5031674;28;20181;-62
2022/04/19 09:45:58;;;;;;;;;;;14.70;68.80;;;14.46;37.69;96788.03;5031906;28;19924;-61
2022/04/19 09:48:37;;;;;;;;;;;14.80;69.90;;;14.40;37.75;96788.38;5036386;28;19980;-61
2022/04/19 09:51:04;;;;;;;;;;;14.80;69.70;;;14.40;38.08;96784.88;5028881;28;19924;-61
2022/04/19 09:53:43;;;;;;;;;;;14.80;70.00;;;14.39;36.95;96783.16;5034794;28;19927;-61
2022/04/19 09:56:11;;;;;;;;;;;14.80;69.30;;;14.32;37.53;96782.72;5032188;28;20184;-60
2022/04/19 09:58:41;;;;;;;;;;;14.70;67.60;;;14.27;37.92;96775.03;5034716;28;19925;-60
2022/04/19 10:01:07;;;;;;;;;;;14.70;69.00;;;14.35;39.59;96771.06;5033937;28;20371;-61
2022/04/19 10:09:04;;;;;;;;;;;14.90;68.20;;;14.63;36.56;96768.41;5036295;28;19980;-60
2022/04/19 10:11:30;;;;;;;;;;;14.90;66.20;;;14.70;36.13;96763.56;5036248;28;19936;-60
2022/04/19 10:13:56;;;;;;;;;;;15.10;66.10;;;14.88;37.03;96769.50;5032482;28;19916;-60
2022/04/19 10:16:22;;;;;;;;;;;15.20;66.40;;;15.04;35.30;96766.72;5034872;28;20558;-60
2022/04/19 10:18:48;;;;;;;;;;;15.30;64.30;;;15.05;34.85;96752.47;5029249;28;20460;-60
2022/04/19 10:21:19;;;;;;;;;;;15.40;63.80;;;15.11;33.97;96757.41;5030101;28;19921;-60
2022/04/19 10:23:45;;;;;;;;;;;15.50;61.80;;;15.23;34.93;96755.72;5030140;28;19924;-60
2022/04/19 10:26:18;;;;;;;;;;;15.60;62.30;;;15.36;35.19;96756.63;5032448;28;19925;-60
2022/04/19 10:28:45;;;;;;;;;;;15.70;63.00;;;15.11;34.61;96767.16;5033182;28;19921;-57
2022/04/19 10:31:11;;;;;;;;;;;15.60;60.70;;;15.06;35.66;96764.81;5035834;28;19927;-59
2022/04/19 10:33:51;;;;;;;;;;;15.50;63.80;;;14.99;35.83;96767.00;5032454;28;19963;-59
2022/04/19 10:36:20;;;;;;;;;;;15.40;62.50;;;15.03;35.84;96767.66;5035402;28;19948;-59
2022/04/19 10:39:07;;;;;;;;;;;15.40;63.40;;;14.98;34.69;96754.66;5029708;28;19925;-58
2022/04/19 10:42:02;;;;;;;;;;;15.40;61.10;;;15.10;34.75;96761.00;5030646;28;19924;-59
2022/04/19 10:44:36;;;;;;;;;;;15.50;61.00;;;15.15;35.21;96756.22;5034497;28;19944;-60
2022/04/19 10:47:15;;;;;;;;;;;15.50;62.10;;;15.25;35.97;96752.03;5030696;28;19920;-58
2022/04/19 10:49:50;;;;;;;;;;;15.60;62.70;;;15.18;34.76;96748.06;5034239;28;19925;-58
2022/04/19 10:52:42;;;;;;;;;;;15.60;61.00;;;15.10;34.95;96749.53;5030103;28;19925;-58
2022/04/19 10:55:18;;;;;;;;;;;15.50;61.10;;;15.14;34.78;96746.56;5037391;28;20365;-58
2022/04/19 11:00:41;;;;;;;;;;;15.60;60.20;;;15.18;34.52;96744.53;5031179;28;20020;-58
2022/04/19 11:03:09;;;;;;;;;;;15.60;59.80;;;15.19;35.11;96740.94;5031860;28;19925;-58
2022/04/19 11:05:36;;;;;;;;;;;15.60;61.60;;;15.18;35.70;96736.56;5022786;28;20070;-66
2022/04/19 11:08:20;;;;;;;;;;;15.60;61.80;;;15.19;35.62;96738.28;5025256;28;19921;-58
2022/04/19 11:10:47;;;;;;;;;;;15.60;61.40;;;15.36;34.82;96739.81;5032077;28;20277;-61
2022/04/19 11:13:12;;;;;;;;;;;15.60;60.60;;;15.38;35.98;96733.47;5031783;28;19932;-58
2022/04/19 11:15:38;;;;;;;;;;;15.70;61.70;;;15.31;34.93;96729.50;5028928;28;19932;-59
2022/04/19 11:18:26;;;;;;;;;;;15.70;60.20;;;15.24;35.31;96717.59;5033728;28;19928;-57
2022/04/19 11:20:56;;;;;;;;;;;15.70;60.00;;;15.18;34.94;96715.34;5035313;28;19929;-57
2022/04/19 11:23:24;;;;;;;;;;;15.60;60.00;;;15.17;35.84;96726.94;5031275;28;20385;-57
2022/04/19 11:25:51;;;;;;;;;;;15.60;61.40;;;15.04;35.62;96716.25;5031428;28;19973;-57
2022/04/19 11:28:18;;;;;;;;;;;15.50;60.50;;;15.04;35.95;96716.25;5034576;28;20434;-57
2022/04/19 11:30:45;;;;;;;;;;;15.40;62.50;;;15.00;35.22;96726.22;5034200;28;19970;-57
2022/04/19 11:33:20;;;;;;;;;;;15.40;60.50;;;15.06;35.95;96717.00;5034214;28;19929;-57
2022/04/19 11:35:57;;;;;;;;;;;15.40;61.70;;;15.26;36.65;96718.34;5037212;28;19924;-57
2022/04/19 11:38:23;;;;;;;;;;;15.60;62.20;;;15.30;34.77;96700.41;5032877;28;20417;-57
2022/04/19 11:49:04;;;;;;;;;;;15.80;59.00;;;15.40;33.18;96698.81;5029512;28;19931;-57
2022/04/19 11:51:30;;;;;;;;;;;15.90;57.30;;;15.47;33.52;96702.78;5030190;28;20327;-57
2022/04/19 11:53:55;;;;;;;;;;;15.90;57.90;;;15.43;32.63;96704.78;5032790;28;20335;-58
2022/04/19 11:56:21;;;;;;;;;;;15.90;57.20;;;15.42;33.37;96697.75;5034234;28;19922;-57
2022/04/19 11:58:49;;;;;;;;;;;15.80;57.30;;;15.42;33.65;96692.44;5031722;28;19917;-56
2022/04/19 12:01:15;;;;;;;;;;;15.80;57.80;;;15.54;34.95;96695.22;5049024;28;20188;-56
2022/04/19 12:03:41;;;;;;;;;;;15.90;60.20;;;15.59;33.96;96690.44;5033744;28;19921;-57